Loogootee, Indiana
Current Conditions -  °F | °C
As of 11:55 AM on Friday 24 Oct 2014 (Local Time) from KDCY Reporting Station
Clear Clear  
Wind Chill: 62°   Ceiling: Unl
Heat Index: 62°   Visibility: 10mi
Dew Point: 47°   Wind: 6mph
Humidity: 58%   Direction: 220°SW
Pressure: 30.11"   Gusts: NA
Location:  38.68°N, 86.91°W
Report Text: KDCY 241655Z AUTO 22005KT 10SM CLR 16/08 A3011 RMK AO2 T01640081
Loading
Personal Weather Stations






























Interactive Weather Map
Tropical Storm Tracking
New forecast layout! Learn more

10-Day Weather Forecast

Advertisements
Track Severe Weather on mobile